sensor_id;sensor_type;location;lat;lon;timestamp;P1;durP1;ratioP1;P2;durP2;ratioP2
28373;SDS011;15616;40.148;-102.718;2022-10-26T00:00:41;12.27;;;3.33;;
28373;SDS011;15616;40.148;-102.718;2022-10-26T00:03:06;12.20;;;3.35;;
28373;SDS011;15616;40.148;-102.718;2022-10-26T00:05:32;10.35;;;3.50;;
28373;SDS011;15616;40.148;-102.718;2022-10-26T00:07:59;9.98;;;3.22;;
28373;SDS011;15616;40.148;-102.718;2022-10-26T00:10:25;9.48;;;3.45;;
28373;SDS011;15616;40.148;-102.718;2022-10-26T00:12:52;12.07;;;3.70;;
28373;SDS011;15616;40.148;-102.718;2022-10-26T00:15:18;12.45;;;3.80;;
28373;SDS011;15616;40.148;-102.718;2022-10-26T00:17:45;8.88;;;3.33;;
28373;SDS011;15616;40.148;-102.718;2022-10-26T00:20:11;11.05;;;3.33;;
28373;SDS011;15616;40.148;-102.718;2022-10-26T00:22:38;11.05;;;3.25;;
28373;SDS011;15616;40.148;-102.718;2022-10-26T00:25:04;9.70;;;3.35;;
28373;SDS011;15616;40.148;-102.718;2022-10-26T00:27:31;7.25;;;3.00;;
28373;SDS011;15616;40.148;-102.718;2022-10-26T00:29:59;10.50;;;3.35;;
28373;SDS011;15616;40.148;-102.718;2022-10-26T00:32:25;11.50;;;3.10;;
28373;SDS011;15616;40.148;-102.718;2022-10-26T00:34:52;9.05;;;3.00;;
28373;SDS011;15616;40.148;-102.718;2022-10-26T00:37:18;9.15;;;3.17;;
28373;SDS011;15616;40.148;-102.718;2022-10-26T00:39:44;9.68;;;3.25;;
28373;SDS011;15616;40.148;-102.718;2022-10-26T00:42:20;11.77;;;3.20;;
28373;SDS011;15616;40.148;-102.718;2022-10-26T00:50:03;8.52;;;3.30;;
28373;SDS011;15616;40.148;-102.718;2022-10-26T00:52:34;10.23;;;3.08;;
28373;SDS011;15616;40.148;-102.718;2022-10-26T00:55:02;11.32;;;3.50;;
28373;SDS011;15616;40.148;-102.718;2022-10-26T00:57:29;8.43;;;3.13;;
28373;SDS011;15616;40.148;-102.718;2022-10-26T00:59:55;9.85;;;3.15;;
28373;SDS011;15616;40.148;-102.718;2022-10-26T01:02:23;9.80;;;3.45;;
28373;SDS011;15616;40.148;-102.718;2022-10-26T01:04:49;14.18;;;3.65;;
28373;SDS011;15616;40.148;-102.718;2022-10-26T01:07:16;8.15;;;3.03;;
28373;SDS011;15616;40.148;-102.718;2022-10-26T01:09:43;8.30;;;3.17;;
28373;SDS011;15616;40.148;-102.718;2022-10-26T01:12:09;8.05;;;2.83;;
28373;SDS011;15616;40.148;-102.718;2022-10-26T01:14:34;9.43;;;2.90;;
28373;SDS011;15616;40.148;-102.718;2022-10-26T01:33:08;9.75;;;2.97;;
28373;SDS011;15616;40.148;-102.718;2022-10-26T01:35:50;9.57;;;3.50;;
28373;SDS011;15616;40.148;-102.718;2022-10-26T01:38:46;8.40;;;3.22;;
28373;SDS011;15616;40.148;-102.718;2022-10-26T01:41:35;11.23;;;3.20;;
28373;SDS011;15616;40.148;-102.718;2022-10-26T01:44:17;10.52;;;3.13;;
28373;SDS011;15616;40.148;-102.718;2022-10-26T01:46:45;9.68;;;2.83;;
28373;SDS011;15616;40.148;-102.718;2022-10-26T01:49:14;8.95;;;3.50;;
28373;SDS011;15616;40.148;-102.718;2022-10-26T01:51:43;8.98;;;2.83;;
28373;SDS011;15616;40.148;-102.718;2022-10-26T01:54:11;8.18;;;3.10;;
28373;SDS011;15616;40.148;-102.718;2022-10-26T01:56:37;9.63;;;3.28;;
28373;SDS011;15616;40.148;-102.718;2022-10-26T02:04:51;9.63;;;3.03;;
28373;SDS011;15616;40.148;-102.718;2022-10-26T02:16:46;7.20;;;2.93;;
28373;SDS011;15616;40.148;-102.718;2022-10-26T02:19:00;7.60;;;2.80;;
28373;SDS011;15616;40.148;-102.718;2022-10-26T02:21:34;10.77;;;3.22;;
28373;SDS011;15616;40.148;-102.718;2022-10-26T02:24:04;8.38;;;2.88;;
28373;SDS011;15616;40.148;-102.718;2022-10-26T02:26:32;8.40;;;2.90;;
28373;SDS011;15616;40.148;-102.718;2022-10-26T02:28:59;7.75;;;2.80;;
28373;SDS011;15616;40.148;-102.718;2022-10-26T02:31:29;8.10;;;2.95;;
28373;SDS011;15616;40.148;-102.718;2022-10-26T02:33:56;7.75;;;2.78;;
28373;SDS011;15616;40.148;-102.718;2022-10-26T02:36:27;8.52;;;2.90;;
28373;SDS011;15616;40.148;-102.718;2022-10-26T02:38:57;10.07;;;3.05;;
28373;SDS011;15616;40.148;-102.718;2022-10-26T02:41:25;8.05;;;3.20;;
28373;SDS011;15616;40.148;-102.718;2022-10-26T02:46:41;11.18;;;3.22;;
28373;SDS011;15616;40.148;-102.718;2022-10-26T02:49:09;6.10;;;2.95;;
28373;SDS011;15616;40.148;-102.718;2022-10-26T02:51:52;7.93;;;3.10;;
28373;SDS011;15616;40.148;-102.718;2022-10-26T02:54:34;9.23;;;3.05;;
28373;SDS011;15616;40.148;-102.718;2022-10-26T02:57:17;7.07;;;2.63;;
28373;SDS011;15616;40.148;-102.718;2022-10-26T03:00:08;7.07;;;2.78;;
28373;SDS011;15616;40.148;-102.718;2022-10-26T03:02:36;11.15;;;3.22;;
28373;SDS011;15616;40.148;-102.718;2022-10-26T03:07:43;8.38;;;3.03;;
28373;SDS011;15616;40.148;-102.718;2022-10-26T03:10:09;6.78;;;2.83;;
28373;SDS011;15616;40.148;-102.718;2022-10-26T03:12:35;10.55;;;3.28;;
28373;SDS011;15616;40.148;-102.718;2022-10-26T03:15:02;7.72;;;3.10;;
28373;SDS011;15616;40.148;-102.718;2022-10-26T03:17:28;7.78;;;2.88;;
28373;SDS011;15616;40.148;-102.718;2022-10-26T03:19:54;9.57;;;2.65;;
28373;SDS011;15616;40.148;-102.718;2022-10-26T03:22:21;7.75;;;2.78;;
28373;SDS011;15616;40.148;-102.718;2022-10-26T03:24:47;9.88;;;2.88;;
28373;SDS011;15616;40.148;-102.718;2022-10-26T03:27:13;10.05;;;3.00;;
28373;SDS011;15616;40.148;-102.718;2022-10-26T03:29:39;9.18;;;3.00;;
28373;SDS011;15616;40.148;-102.718;2022-10-26T03:32:05;6.82;;;2.90;;
28373;SDS011;15616;40.148;-102.718;2022-10-26T03:34:31;7.88;;;2.97;;
28373;SDS011;15616;40.148;-102.718;2022-10-26T03:36:57;9.13;;;3.10;;
28373;SDS011;15616;40.148;-102.718;2022-10-26T03:39:23;8.15;;;2.70;;
28373;SDS011;15616;40.148;-102.718;2022-10-26T03:41:49;9.95;;;3.00;;
28373;SDS011;15616;40.148;-102.718;2022-10-26T03:44:15;9.02;;;3.10;;
28373;SDS011;15616;40.148;-102.718;2022-10-26T03:46:41;7.88;;;3.20;;
28373;SDS011;15616;40.148;-102.718;2022-10-26T03:49:07;9.65;;;2.83;;
28373;SDS011;15616;40.148;-102.718;2022-10-26T03:51:33;6.93;;;2.92;;
28373;SDS011;15616;40.148;-102.718;2022-10-26T03:53:59;7.65;;;2.90;;
28373;SDS011;15616;40.148;-102.718;2022-10-26T03:56:24;6.18;;;2.60;;
28373;SDS011;15616;40.148;-102.718;2022-10-26T03:58:50;6.22;;;2.70;;
28373;SDS011;15616;40.148;-102.718;2022-10-26T04:01:16;7.93;;;2.90;;
28373;SDS011;15616;40.148;-102.718;2022-10-26T04:03:42;7.75;;;3.00;;
28373;SDS011;15616;40.148;-102.718;2022-10-26T04:06:08;10.40;;;3.30;;
28373;SDS011;15616;40.148;-102.718;2022-10-26T04:08:34;7.82;;;3.00;;
28373;SDS011;15616;40.148;-102.718;2022-10-26T04:11:00;6.55;;;3.00;;
28373;SDS011;15616;40.148;-102.718;2022-10-26T04:13:26;5.75;;;2.55;;
28373;SDS011;15616;40.148;-102.718;2022-10-26T04:15:52;8.02;;;3.13;;
28373;SDS011;15616;40.148;-102.718;2022-10-26T04:18:18;10.30;;;3.05;;
28373;SDS011;15616;40.148;-102.718;2022-10-26T04:20:44;9.35;;;2.88;;
28373;SDS011;15616;40.148;-102.718;2022-10-26T04:23:10;9.38;;;2.80;;
28373;SDS011;15616;40.148;-102.718;2022-10-26T04:25:39;8.35;;;3.00;;
28373;SDS011;15616;40.148;-102.718;2022-10-26T04:28:06;7.18;;;2.58;;
28373;SDS011;15616;40.148;-102.718;2022-10-26T04:30:33;5.90;;;2.90;;
28373;SDS011;15616;40.148;-102.718;2022-10-26T04:32:59;8.48;;;3.00;;
28373;SDS011;15616;40.148;-102.718;2022-10-26T04:35:25;8.00;;;2.92;;
28373;SDS011;15616;40.148;-102.718;2022-10-26T04:37:58;8.77;;;3.25;;
28373;SDS011;15616;40.148;-102.718;2022-10-26T04:40:25;9.27;;;2.80;;
28373;SDS011;15616;40.148;-102.718;2022-10-26T04:42:52;6.88;;;2.70;;
28373;SDS011;15616;40.148;-102.718;2022-10-26T04:45:19;7.18;;;2.95;;
28373;SDS011;15616;40.148;-102.718;2022-10-26T04:47:45;5.95;;;2.55;;
28373;SDS011;15616;40.148;-102.718;2022-10-26T04:50:11;7.00;;;2.80;;
28373;SDS011;15616;40.148;-102.718;2022-10-26T04:52:38;5.13;;;2.47;;
28373;SDS011;15616;40.148;-102.718;2022-10-26T04:55:04;8.15;;;2.60;;
28373;SDS011;15616;40.148;-102.718;2022-10-26T04:57:31;6.72;;;2.50;;
28373;SDS011;15616;40.148;-102.718;2022-10-26T04:59:59;5.72;;;2.55;;
28373;SDS011;15616;40.148;-102.718;2022-10-26T05:02:26;7.13;;;2.78;;
28373;SDS011;15616;40.148;-102.718;2022-10-26T05:04:53;5.78;;;2.42;;
28373;SDS011;15616;40.148;-102.718;2022-10-26T05:07:19;6.88;;;2.42;;
28373;SDS011;15616;40.148;-102.718;2022-10-26T05:09:45;7.95;;;3.17;;
28373;SDS011;15616;40.148;-102.718;2022-10-26T05:12:12;18.08;;;3.25;;
28373;SDS011;15616;40.148;-102.718;2022-10-26T05:14:37;10.73;;;2.80;;
28373;SDS011;15616;40.148;-102.718;2022-10-26T05:17:03;9.00;;;2.40;;
28373;SDS011;15616;40.148;-102.718;2022-10-26T05:19:29;9.73;;;2.58;;
28373;SDS011;15616;40.148;-102.718;2022-10-26T05:21:55;15.52;;;2.60;;
28373;SDS011;15616;40.148;-102.718;2022-10-26T05:24:21;10.80;;;2.63;;
28373;SDS011;15616;40.148;-102.718;2022-10-26T05:26:47;7.75;;;2.20;;
28373;SDS011;15616;40.148;-102.718;2022-10-26T05:29:13;11.82;;;2.53;;
28373;SDS011;15616;40.148;-102.718;2022-10-26T05:31:39;7.68;;;2.70;;
28373;SDS011;15616;40.148;-102.718;2022-10-26T05:34:05;10.98;;;2.50;;
28373;SDS011;15616;40.148;-102.718;2022-10-26T05:36:31;7.70;;;2.35;;
28373;SDS011;15616;40.148;-102.718;2022-10-26T05:38:57;12.23;;;2.70;;
28373;SDS011;15616;40.148;-102.718;2022-10-26T05:41:24;10.40;;;2.35;;
28373;SDS011;15616;40.148;-102.718;2022-10-26T05:43:50;10.52;;;2.65;;
28373;SDS011;15616;40.148;-102.718;2022-10-26T05:46:16;8.77;;;2.60;;
28373;SDS011;15616;40.148;-102.718;2022-10-26T05:48:42;14.07;;;2.95;;
28373;SDS011;15616;40.148;-102.718;2022-10-26T05:51:07;11.85;;;3.05;;
28373;SDS011;15616;40.148;-102.718;2022-10-26T05:53:34;8.43;;;2.60;;
28373;SDS011;15616;40.148;-102.718;2022-10-26T05:56:00;12.88;;;2.90;;
28373;SDS011;15616;40.148;-102.718;2022-10-26T05:58:26;18.33;;;3.33;;
28373;SDS011;15616;40.148;-102.718;2022-10-26T06:01:00;16.98;;;3.67;;
28373;SDS011;15616;40.148;-102.718;2022-10-26T06:06:39;28.05;;;3.92;;
28373;SDS011;15616;40.148;-102.718;2022-10-26T06:09:12;17.45;;;3.33;;
28373;SDS011;15616;40.148;-102.718;2022-10-26T06:11:39;28.90;;;3.40;;
28373;SDS011;15616;40.148;-102.718;2022-10-26T06:14:05;24.85;;;4.32;;
28373;SDS011;15616;40.148;-102.718;2022-10-26T06:16:36;27.80;;;3.42;;
28373;SDS011;15616;40.148;-102.718;2022-10-26T06:30:18;21.80;;;3.33;;
28373;SDS011;15616;40.148;-102.718;2022-10-26T06:32:47;13.75;;;2.97;;
28373;SDS011;15616;40.148;-102.718;2022-10-26T06:35:20;20.73;;;3.90;;
28373;SDS011;15616;40.148;-102.718;2022-10-26T06:37:49;10.95;;;2.92;;
28373;SDS011;15616;40.148;-102.718;2022-10-26T06:40:17;17.95;;;3.53;;
28373;SDS011;15616;40.148;-102.718;2022-10-26T06:42:43;30.63;;;4.03;;
28373;SDS011;15616;40.148;-102.718;2022-10-26T06:45:11;21.02;;;3.15;;
28373;SDS011;15616;40.148;-102.718;2022-10-26T06:50:50;11.00;;;3.03;;
28373;SDS011;15616;40.148;-102.718;2022-10-26T06:53:20;25.33;;;3.63;;
28373;SDS011;15616;40.148;-102.718;2022-10-26T06:55:49;15.10;;;3.65;;
28373;SDS011;15616;40.148;-102.718;2022-10-26T06:58:19;23.77;;;3.28;;
28373;SDS011;15616;40.148;-102.718;2022-10-26T07:00:48;17.02;;;4.45;;
28373;SDS011;15616;40.148;-102.718;2022-10-26T07:03:18;31.35;;;4.55;;
28373;SDS011;15616;40.148;-102.718;2022-10-26T07:05:44;36.05;;;3.55;;
28373;SDS011;15616;40.148;-102.718;2022-10-26T07:08:10;21.45;;;3.33;;
28373;SDS011;15616;40.148;-102.718;2022-10-26T07:10:36;19.63;;;3.20;;
28373;SDS011;15616;40.148;-102.718;2022-10-26T07:13:03;25.23;;;3.53;;
28373;SDS011;15616;40.148;-102.718;2022-10-26T07:15:31;20.63;;;3.72;;
28373;SDS011;15616;40.148;-102.718;2022-10-26T07:17:57;22.27;;;3.38;;
28373;SDS011;15616;40.148;-102.718;2022-10-26T07:20:24;24.25;;;3.38;;
28373;SDS011;15616;40.148;-102.718;2022-10-26T07:22:51;20.90;;;3.30;;
28373;SDS011;15616;40.148;-102.718;2022-10-26T07:25:18;13.68;;;3.00;;
28373;SDS011;15616;40.148;-102.718;2022-10-26T07:27:44;14.18;;;3.17;;
28373;SDS011;15616;40.148;-102.718;2022-10-26T07:30:10;20.83;;;3.70;;
28373;SDS011;15616;40.148;-102.718;2022-10-26T07:32:36;16.63;;;3.15;;
28373;SDS011;15616;40.148;-102.718;2022-10-26T07:35:02;22.20;;;3.45;;
28373;SDS011;15616;40.148;-102.718;2022-10-26T07:37:29;27.25;;;3.78;;
28373;SDS011;15616;40.148;-102.718;2022-10-26T07:39:55;14.48;;;3.30;;
28373;SDS011;15616;40.148;-102.718;2022-10-26T07:42:21;18.88;;;3.45;;
28373;SDS011;15616;40.148;-102.718;2022-10-26T07:44:47;17.88;;;3.50;;
28373;SDS011;15616;40.148;-102.718;2022-10-26T07:47:13;23.00;;;3.47;;
28373;SDS011;15616;40.148;-102.718;2022-10-26T07:49:38;20.55;;;3.40;;
28373;SDS011;15616;40.148;-102.718;2022-10-26T07:52:04;22.85;;;3.63;;
28373;SDS011;15616;40.148;-102.718;2022-10-26T07:54:31;26.25;;;3.40;;
28373;SDS011;15616;40.148;-102.718;2022-10-26T07:56:57;19.85;;;3.20;;
28373;SDS011;15616;40.148;-102.718;2022-10-26T07:59:23;29.08;;;3.30;;
28373;SDS011;15616;40.148;-102.718;2022-10-26T08:01:49;17.75;;;3.17;;
28373;SDS011;15616;40.148;-102.718;2022-10-26T08:04:15;20.40;;;3.25;;
28373;SDS011;15616;40.148;-102.718;2022-10-26T08:06:41;24.42;;;3.30;;
28373;SDS011;15616;40.148;-102.718;2022-10-26T08:09:07;32.35;;;3.63;;
28373;SDS011;15616;40.148;-102.718;2022-10-26T08:11:33;27.45;;;3.75;;
28373;SDS011;15616;40.148;-102.718;2022-10-26T08:14:01;23.10;;;3.45;;
28373;SDS011;15616;40.148;-102.718;2022-10-26T08:16:27;33.90;;;3.70;;
28373;SDS011;15616;40.148;-102.718;2022-10-26T08:18:54;27.73;;;3.60;;
28373;SDS011;15616;40.148;-102.718;2022-10-26T08:21:20;46.05;;;4.30;;
28373;SDS011;15616;40.148;-102.718;2022-10-26T08:23:45;50.15;;;5.53;;
28373;SDS011;15616;40.148;-102.718;2022-10-26T08:26:11;40.88;;;5.03;;
28373;SDS011;15616;40.148;-102.718;2022-10-26T08:28:38;30.55;;;4.00;;
28373;SDS011;15616;40.148;-102.718;2022-10-26T08:31:04;35.60;;;4.32;;
28373;SDS011;15616;40.148;-102.718;2022-10-26T08:33:31;30.90;;;4.10;;
28373;SDS011;15616;40.148;-102.718;2022-10-26T08:35:58;22.25;;;3.60;;
28373;SDS011;15616;40.148;-102.718;2022-10-26T08:38:26;34.63;;;4.25;;
28373;SDS011;15616;40.148;-102.718;2022-10-26T08:40:52;31.83;;;3.92;;
28373;SDS011;15616;40.148;-102.718;2022-10-26T08:43:28;36.25;;;4.10;;
28373;SDS011;15616;40.148;-102.718;2022-10-26T08:46:20;30.58;;;3.50;;
28373;SDS011;15616;40.148;-102.718;2022-10-26T08:48:56;20.65;;;3.42;;
28373;SDS011;15616;40.148;-102.718;2022-10-26T08:51:28;26.42;;;3.33;;
28373;SDS011;15616;40.148;-102.718;2022-10-26T08:54:00;33.45;;;4.45;;
28373;SDS011;15616;40.148;-102.718;2022-10-26T08:56:38;41.75;;;3.58;;
28373;SDS011;15616;40.148;-102.718;2022-10-26T09:02:13;38.53;;;4.75;;
28373;SDS011;15616;40.148;-102.718;2022-10-26T09:04:41;25.95;;;4.05;;
28373;SDS011;15616;40.148;-102.718;2022-10-26T09:15:56;21.58;;;3.97;;
28373;SDS011;15616;40.148;-102.718;2022-10-26T09:18:30;22.08;;;3.78;;
28373;SDS011;15616;40.148;-102.718;2022-10-26T09:26:39;38.00;;;3.65;;
28373;SDS011;15616;40.148;-102.718;2022-10-26T09:29:10;25.08;;;3.83;;
28373;SDS011;15616;40.148;-102.718;2022-10-26T09:31:42;31.40;;;3.78;;
28373;SDS011;15616;40.148;-102.718;2022-10-26T09:34:28;22.95;;;3.95;;
28373;SDS011;15616;40.148;-102.718;2022-10-26T09:40:04;26.08;;;4.00;;
28373;SDS011;15616;40.148;-102.718;2022-10-26T09:42:36;28.88;;;3.50;;
28373;SDS011;15616;40.148;-102.718;2022-10-26T09:47:58;27.83;;;3.58;;
28373;SDS011;15616;40.148;-102.718;2022-10-26T09:50:33;20.55;;;3.28;;
28373;SDS011;15616;40.148;-102.718;2022-10-26T09:53:00;24.08;;;3.40;;
28373;SDS011;15616;40.148;-102.718;2022-10-26T09:55:27;26.25;;;3.60;;
28373;SDS011;15616;40.148;-102.718;2022-10-26T09:57:56;17.63;;;3.33;;
28373;SDS011;15616;40.148;-102.718;2022-10-26T10:00:27;26.50;;;3.00;;
28373;SDS011;15616;40.148;-102.718;2022-10-26T10:02:57;23.55;;;3.40;;
28373;SDS011;15616;40.148;-102.718;2022-10-26T10:05:29;21.00;;;3.38;;
28373;SDS011;15616;40.148;-102.718;2022-10-26T10:10:58;22.30;;;3.65;;
28373;SDS011;15616;40.148;-102.718;2022-10-26T10:13:35;20.13;;;3.58;;
28373;SDS011;15616;40.148;-102.718;2022-10-26T10:18:36;26.63;;;3.58;;
28373;SDS011;15616;40.148;-102.718;2022-10-26T10:21:04;29.08;;;3.72;;
28373;SDS011;15616;40.148;-102.718;2022-10-26T10:23:32;29.58;;;3.47;;
28373;SDS011;15616;40.148;-102.718;2022-10-26T10:26:04;27.80;;;4.22;;
28373;SDS011;15616;40.148;-102.718;2022-10-26T10:28:38;19.27;;;3.45;;
28373;SDS011;15616;40.148;-102.718;2022-10-26T10:34:10;21.38;;;3.28;;
28373;SDS011;15616;40.148;-102.718;2022-10-26T10:36:41;19.88;;;3.70;;
28373;SDS011;15616;40.148;-102.718;2022-10-26T10:39:16;23.23;;;3.50;;
28373;SDS011;15616;40.148;-102.718;2022-10-26T10:41:50;24.73;;;3.92;;
28373;SDS011;15616;40.148;-102.718;2022-10-26T10:44:21;24.60;;;3.55;;
28373;SDS011;15616;40.148;-102.718;2022-10-26T10:47:01;23.15;;;3.33;;
28373;SDS011;15616;40.148;-102.718;2022-10-26T10:49:31;29.70;;;3.97;;
28373;SDS011;15616;40.148;-102.718;2022-10-26T10:51:58;38.83;;;4.53;;
28373;SDS011;15616;40.148;-102.718;2022-10-26T10:54:31;22.40;;;3.85;;
28373;SDS011;15616;40.148;-102.718;2022-10-26T11:05:30;30.05;;;3.40;;
28373;SDS011;15616;40.148;-102.718;2022-10-26T11:08:20;30.75;;;3.40;;
28373;SDS011;15616;40.148;-102.718;2022-10-26T11:10:51;25.50;;;3.78;;
28373;SDS011;15616;40.148;-102.718;2022-10-26T11:13:32;27.85;;;3.72;;
28373;SDS011;15616;40.148;-102.718;2022-10-26T11:16:01;20.17;;;3.30;;
28373;SDS011;15616;40.148;-102.718;2022-10-26T11:18:32;19.55;;;3.50;;
28373;SDS011;15616;40.148;-102.718;2022-10-26T11:21:11;28.50;;;4.28;;
28373;SDS011;15616;40.148;-102.718;2022-10-26T11:24:12;17.73;;;3.73;;
28373;SDS011;15616;40.148;-102.718;2022-10-26T11:26:43;14.25;;;3.35;;
28373;SDS011;15616;40.148;-102.718;2022-10-26T11:29:28;17.83;;;3.38;;
28373;SDS011;15616;40.148;-102.718;2022-10-26T11:32:02;23.15;;;3.45;;
28373;SDS011;15616;40.148;-102.718;2022-10-26T11:34:37;19.70;;;3.85;;
28373;SDS011;15616;40.148;-102.718;2022-10-26T11:37:16;29.65;;;3.90;;
28373;SDS011;15616;40.148;-102.718;2022-10-26T11:42:45;21.45;;;3.30;;
28373;SDS011;15616;40.148;-102.718;2022-10-26T11:45:19;21.65;;;3.58;;
28373;SDS011;15616;40.148;-102.718;2022-10-26T11:47:54;23.05;;;3.30;;
28373;SDS011;15616;40.148;-102.718;2022-10-26T11:50:39;28.98;;;3.47;;
28373;SDS011;15616;40.148;-102.718;2022-10-26T11:53:13;24.08;;;3.65;;
28373;SDS011;15616;40.148;-102.718;2022-10-26T11:55:46;16.02;;;3.38;;
28373;SDS011;15616;40.148;-102.718;2022-10-26T11:58:16;25.40;;;3.38;;
28373;SDS011;15616;40.148;-102.718;2022-10-26T12:00:51;21.70;;;3.70;;
28373;SDS011;15616;40.148;-102.718;2022-10-26T12:03:27;15.80;;;3.70;;
28373;SDS011;15616;40.148;-102.718;2022-10-26T12:05:59;23.10;;;3.72;;
28373;SDS011;15616;40.148;-102.718;2022-10-26T12:08:27;19.52;;;3.55;;
28373;SDS011;15616;40.148;-102.718;2022-10-26T12:11:06;20.20;;;3.33;;
28373;SDS011;15616;40.148;-102.718;2022-10-26T12:13:47;15.30;;;3.25;;
28373;SDS011;15616;40.148;-102.718;2022-10-26T12:17:06;17.77;;;2.97;;
28373;SDS011;15616;40.148;-102.718;2022-10-26T12:19:17;24.00;;;3.70;;
28373;SDS011;15616;40.148;-102.718;2022-10-26T12:21:49;20.10;;;3.40;;
28373;SDS011;15616;40.148;-102.718;2022-10-26T12:26:51;18.27;;;3.55;;
28373;SDS011;15616;40.148;-102.718;2022-10-26T12:29:35;17.77;;;3.20;;
28373;SDS011;15616;40.148;-102.718;2022-10-26T12:32:04;18.75;;;2.85;;
28373;SDS011;15616;40.148;-102.718;2022-10-26T12:37:22;14.75;;;3.17;;
28373;SDS011;15616;40.148;-102.718;2022-10-26T12:40:36;13.07;;;2.97;;
28373;SDS011;15616;40.148;-102.718;2022-10-26T12:42:51;15.60;;;3.13;;
28373;SDS011;15616;40.148;-102.718;2022-10-26T12:45:18;19.83;;;3.50;;
28373;SDS011;15616;40.148;-102.718;2022-10-26T12:52:52;16.42;;;3.03;;
28373;SDS011;15616;40.148;-102.718;2022-10-26T13:06:43;32.65;;;3.42;;
28373;SDS011;15616;40.148;-102.718;2022-10-26T13:09:22;26.40;;;3.67;;
28373;SDS011;15616;40.148;-102.718;2022-10-26T13:11:52;13.18;;;2.92;;
28373;SDS011;15616;40.148;-102.718;2022-10-26T13:14:25;21.95;;;3.33;;
28373;SDS011;15616;40.148;-102.718;2022-10-26T13:16:57;25.90;;;3.25;;
28373;SDS011;15616;40.148;-102.718;2022-10-26T13:19:47;22.65;;;3.42;;
28373;SDS011;15616;40.148;-102.718;2022-10-26T13:22:22;19.52;;;3.33;;
28373;SDS011;15616;40.148;-102.718;2022-10-26T13:24:58;22.30;;;3.60;;
28373;SDS011;15616;40.148;-102.718;2022-10-26T13:32:59;29.35;;;3.22;;
28373;SDS011;15616;40.148;-102.718;2022-10-26T13:35:26;30.40;;;3.53;;
28373;SDS011;15616;40.148;-102.718;2022-10-26T13:37:55;18.92;;;3.08;;
28373;SDS011;15616;40.148;-102.718;2022-10-26T13:40:22;20.67;;;3.33;;
28373;SDS011;15616;40.148;-102.718;2022-10-26T13:42:52;16.98;;;3.22;;
28373;SDS011;15616;40.148;-102.718;2022-10-26T13:45:25;16.45;;;3.25;;
28373;SDS011;15616;40.148;-102.718;2022-10-26T13:50:26;21.83;;;3.63;;
28373;SDS011;15616;40.148;-102.718;2022-10-26T13:52:58;12.75;;;3.05;;
28373;SDS011;15616;40.148;-102.718;2022-10-26T13:58:32;31.05;;;4.55;;
28373;SDS011;15616;40.148;-102.718;2022-10-26T14:03:34;18.30;;;3.00;;
28373;SDS011;15616;40.148;-102.718;2022-10-26T14:06:04;21.15;;;3.20;;
28373;SDS011;15616;40.148;-102.718;2022-10-26T14:08:52;16.52;;;2.78;;
28373;SDS011;15616;40.148;-102.718;2022-10-26T14:11:26;16.23;;;2.92;;
28373;SDS011;15616;40.148;-102.718;2022-10-26T14:14:01;22.85;;;3.50;;
28373;SDS011;15616;40.148;-102.718;2022-10-26T14:16:29;12.13;;;2.90;;
28373;SDS011;15616;40.148;-102.718;2022-10-26T14:18:57;16.77;;;3.03;;
28373;SDS011;15616;40.148;-102.718;2022-10-26T14:21:23;22.67;;;3.17;;
28373;SDS011;15616;40.148;-102.718;2022-10-26T14:23:51;15.93;;;2.92;;
28373;SDS011;15616;40.148;-102.718;2022-10-26T14:26:23;17.42;;;3.03;;
28373;SDS011;15616;40.148;-102.718;2022-10-26T14:28:53;9.85;;;2.70;;
28373;SDS011;15616;40.148;-102.718;2022-10-26T14:31:27;10.98;;;2.80;;
28373;SDS011;15616;40.148;-102.718;2022-10-26T14:33:55;13.73;;;3.30;;
28373;SDS011;15616;40.148;-102.718;2022-10-26T14:36:25;15.73;;;2.90;;
28373;SDS011;15616;40.148;-102.718;2022-10-26T14:38:57;21.00;;;3.00;;
28373;SDS011;15616;40.148;-102.718;2022-10-26T14:41:25;9.77;;;2.55;;
28373;SDS011;15616;40.148;-102.718;2022-10-26T14:43:52;16.70;;;2.88;;
28373;SDS011;15616;40.148;-102.718;2022-10-26T14:46:20;16.48;;;3.00;;
28373;SDS011;15616;40.148;-102.718;2022-10-26T14:48:51;14.27;;;3.13;;
28373;SDS011;15616;40.148;-102.718;2022-10-26T14:51:29;13.65;;;3.08;;
28373;SDS011;15616;40.148;-102.718;2022-10-26T14:53:59;15.23;;;3.08;;
28373;SDS011;15616;40.148;-102.718;2022-10-26T14:56:29;15.82;;;3.28;;
28373;SDS011;15616;40.148;-102.718;2022-10-26T14:59:18;9.93;;;2.65;;
28373;SDS011;15616;40.148;-102.718;2022-10-26T15:04:26;11.98;;;2.75;;
28373;SDS011;15616;40.148;-102.718;2022-10-26T15:09:41;11.27;;;2.83;;
28373;SDS011;15616;40.148;-102.718;2022-10-26T15:17:42;15.65;;;2.83;;
28373;SDS011;15616;40.148;-102.718;2022-10-26T15:20:20;14.25;;;2.92;;
28373;SDS011;15616;40.148;-102.718;2022-10-26T15:23:11;8.82;;;2.58;;
28373;SDS011;15616;40.148;-102.718;2022-10-26T15:25:37;8.73;;;3.08;;
28373;SDS011;15616;40.148;-102.718;2022-10-26T15:28:10;10.40;;;2.97;;
28373;SDS011;15616;40.148;-102.718;2022-10-26T15:33:28;8.25;;;2.67;;
28373;SDS011;15616;40.148;-102.718;2022-10-26T15:38:33;7.75;;;2.83;;
28373;SDS011;15616;40.148;-102.718;2022-10-26T15:40:59;11.15;;;3.00;;
28373;SDS011;15616;40.148;-102.718;2022-10-26T15:43:25;10.30;;;2.80;;
28373;SDS011;15616;40.148;-102.718;2022-10-26T15:45:51;12.05;;;2.88;;
28373;SDS011;15616;40.148;-102.718;2022-10-26T15:48:22;12.07;;;2.78;;
28373;SDS011;15616;40.148;-102.718;2022-10-26T15:50:53;13.27;;;2.90;;
28373;SDS011;15616;40.148;-102.718;2022-10-26T15:53:21;17.05;;;3.00;;
28373;SDS011;15616;40.148;-102.718;2022-10-26T15:55:52;13.48;;;3.28;;
28373;SDS011;15616;40.148;-102.718;2022-10-26T15:58:19;11.55;;;3.00;;
28373;SDS011;15616;40.148;-102.718;2022-10-26T16:00:45;12.23;;;3.03;;
28373;SDS011;15616;40.148;-102.718;2022-10-26T16:03:19;11.65;;;2.90;;
28373;SDS011;15616;40.148;-102.718;2022-10-26T16:05:47;9.77;;;2.97;;
28373;SDS011;15616;40.148;-102.718;2022-10-26T16:08:21;12.80;;;2.88;;
28373;SDS011;15616;40.148;-102.718;2022-10-26T16:10:47;9.40;;;2.95;;
28373;SDS011;15616;40.148;-102.718;2022-10-26T16:13:15;8.52;;;2.60;;
28373;SDS011;15616;40.148;-102.718;2022-10-26T16:15:41;11.40;;;2.70;;
28373;SDS011;15616;40.148;-102.718;2022-10-26T16:18:07;14.45;;;3.15;;
28373;SDS011;15616;40.148;-102.718;2022-10-26T16:20:33;12.00;;;2.80;;
28373;SDS011;15616;40.148;-102.718;2022-10-26T16:23:00;8.25;;;3.00;;
28373;SDS011;15616;40.148;-102.718;2022-10-26T16:25:31;10.25;;;3.00;;
28373;SDS011;15616;40.148;-102.718;2022-10-26T16:28:04;12.40;;;3.30;;
28373;SDS011;15616;40.148;-102.718;2022-10-26T16:30:30;9.38;;;2.95;;
28373;SDS011;15616;40.148;-102.718;2022-10-26T16:32:56;11.55;;;2.85;;
28373;SDS011;15616;40.148;-102.718;2022-10-26T16:35:22;13.18;;;3.10;;
28373;SDS011;15616;40.148;-102.718;2022-10-26T16:37:48;6.40;;;2.65;;
28373;SDS011;15616;40.148;-102.718;2022-10-26T16:40:14;11.45;;;3.20;;
28373;SDS011;15616;40.148;-102.718;2022-10-26T16:42:40;11.95;;;3.10;;
28373;SDS011;15616;40.148;-102.718;2022-10-26T16:45:11;8.98;;;2.92;;
28373;SDS011;15616;40.148;-102.718;2022-10-26T16:47:38;10.95;;;2.75;;
28373;SDS011;15616;40.148;-102.718;2022-10-26T16:50:05;14.45;;;3.28;;